createdAt,value
2022-12-23T00:01:30.601Z,13.60
2022-12-23T00:04:00.339Z,15.10
2022-12-23T00:06:28.386Z,15.23
2022-12-23T00:08:58.824Z,14.52
2022-12-23T00:11:30.119Z,15.90
2022-12-23T00:14:20.986Z,14.43
2022-12-23T00:16:51.344Z,13.75
2022-12-23T00:19:19.453Z,10.40
2022-12-23T00:21:48.519Z,13.40
2022-12-23T00:24:16.845Z,9.90
2022-12-23T00:26:46.526Z,13.10
2022-12-23T00:29:14.888Z,11.00
2022-12-23T00:31:43.142Z,10.82
2022-12-23T00:34:12.511Z,13.00
2022-12-23T00:36:41.305Z,13.10
2022-12-23T00:39:30.061Z,7.93
2022-12-23T00:42:17.306Z,10.95
2022-12-23T00:44:46.066Z,18.33
2022-12-23T00:47:35.685Z,17.15
2022-12-23T00:50:02.983Z,17.70
2022-12-23T00:52:31.394Z,12.45
2022-12-23T00:55:00.146Z,19.50
2022-12-23T00:57:29.652Z,17.15
2022-12-23T00:59:58.262Z,12.90
2022-12-23T01:02:43.875Z,16.73
2022-12-23T01:05:29.683Z,12.50
2022-12-23T01:07:57.984Z,14.35
2022-12-23T01:10:26.175Z,14.15
2022-12-23T01:12:56.419Z,8.52
2022-12-23T01:15:25.156Z,11.02
2022-12-23T01:17:53.893Z,14.50
2022-12-23T01:20:22.432Z,18.08
2022-12-23T01:22:50.885Z,10.50
2022-12-23T01:25:19.207Z,5.65
2022-12-23T01:27:47.616Z,10.82
2022-12-23T01:30:17.640Z,8.60
2022-12-23T01:32:45.968Z,15.30
2022-12-23T01:35:14.154Z,25.73
2022-12-23T01:37:42.266Z,9.82
2022-12-23T01:40:12.061Z,15.80
2022-12-23T01:42:45.291Z,13.15
2022-12-23T01:45:20.631Z,17.13
2022-12-23T01:47:57.349Z,13.80
2022-12-23T01:50:29.096Z,8.38
2022-12-23T01:53:07.760Z,20.00
2022-12-23T01:55:42.424Z,25.83
2022-12-23T01:58:14.937Z,23.52
2022-12-23T02:01:02.587Z,22.88
2022-12-23T02:03:46.110Z,21.98
2022-12-23T02:06:40.386Z,13.95
2022-12-23T02:09:20.946Z,16.13
2022-12-23T02:12:22.508Z,22.05
2022-12-23T02:15:20.560Z,23.92
2022-12-23T02:18:04.498Z,18.50
2022-12-23T02:20:55.068Z,17.50
2022-12-23T02:24:02.747Z,13.73
2022-12-23T02:26:57.012Z,20.00
2022-12-23T02:30:09.764Z,15.82
2022-12-23T02:32:53.988Z,10.93
2022-12-23T02:35:30.789Z,19.90
2022-12-23T02:38:05.726Z,23.02
2022-12-23T02:40:40.313Z,13.75
2022-12-23T02:43:15.494Z,17.67
2022-12-23T02:45:47.826Z,30.67
2022-12-23T02:48:23.471Z,20.90
2022-12-23T02:50:54.921Z,18.30
2022-12-23T02:53:28.160Z,16.10
2022-12-23T02:55:59.553Z,21.95
2022-12-23T02:58:32.204Z,15.40
2022-12-23T03:01:02.569Z,18.95
2022-12-23T03:03:33.311Z,19.15
2022-12-23T03:06:02.815Z,24.15
2022-12-23T03:08:35.883Z,28.00
2022-12-23T03:11:09.607Z,16.20
2022-12-23T03:13:50.323Z,22.45
2022-12-23T03:16:25.182Z,14.18
2022-12-23T03:19:05.248Z,11.90
2022-12-23T03:21:38.753Z,8.90
2022-12-23T03:24:13.969Z,14.73
2022-12-23T03:26:51.293Z,10.32
2022-12-23T03:29:26.227Z,14.88
2022-12-23T03:31:59.567Z,11.80
2022-12-23T03:34:34.559Z,12.57
2022-12-23T03:37:06.249Z,11.75
2022-12-23T03:39:39.230Z,11.48
2022-12-23T03:42:12.922Z,17.85
2022-12-23T03:45:10.646Z,8.52
2022-12-23T03:47:37.283Z,10.48
2022-12-23T03:50:12.833Z,17.80
2022-12-23T03:52:44.891Z,12.18
2022-12-23T03:55:19.016Z,14.43
2022-12-23T03:57:54.246Z,10.30
2022-12-23T04:00:22.238Z,9.82
2022-12-23T04:02:59.530Z,13.13
2022-12-23T04:05:33.823Z,12.75
2022-12-23T04:08:06.958Z,8.20
2022-12-23T04:10:35.842Z,11.43
2022-12-23T04:13:03.991Z,13.07
2022-12-23T04:15:32.668Z,18.55
2022-12-23T04:18:00.808Z,9.00
2022-12-23T04:20:30.169Z,15.88
2022-12-23T04:22:58.058Z,10.95
2022-12-23T04:25:26.017Z,12.00
2022-12-23T04:27:53.949Z,11.98
2022-12-23T04:30:23.200Z,11.20
2022-12-23T04:32:53.497Z,6.60
2022-12-23T04:35:21.481Z,18.88
2022-12-23T04:37:51.273Z,8.73
2022-12-23T04:40:19.475Z,17.52
2022-12-23T04:42:47.790Z,6.43
2022-12-23T04:45:16.223Z,13.60
2022-12-23T04:47:44.292Z,12.40
2022-12-23T04:50:15.666Z,9.13
2022-12-23T04:52:44.689Z,13.48
2022-12-23T04:55:14.057Z,16.35
2022-12-23T04:57:42.166Z,10.40
2022-12-23T05:00:11.340Z,17.42
2022-12-23T05:02:39.661Z,11.32
2022-12-23T05:05:08.111Z,19.27
2022-12-23T05:07:36.196Z,11.43
2022-12-23T05:10:04.082Z,13.88
2022-12-23T05:12:33.764Z,11.27
2022-12-23T05:15:01.905Z,17.30
2022-12-23T05:17:30.174Z,10.55
2022-12-23T05:19:58.032Z,18.63
2022-12-23T05:22:26.079Z,8.35
2022-12-23T05:24:54.165Z,15.05
2022-12-23T05:27:22.198Z,11.27
2022-12-23T05:29:51.443Z,11.98
2022-12-23T05:32:19.280Z,16.63
2022-12-23T05:34:47.179Z,11.27
2022-12-23T05:37:15.155Z,10.68
2022-12-23T05:39:43.008Z,10.25
2022-12-23T05:42:10.847Z,24.08
2022-12-23T05:44:38.709Z,10.45
2022-12-23T05:47:08.119Z,12.80
2022-12-23T05:49:36.044Z,13.25
2022-12-23T05:52:04.068Z,13.13
2022-12-23T05:54:31.869Z,12.80
2022-12-23T05:56:59.850Z,13.70
2022-12-23T05:59:31.342Z,15.32
2022-12-23T06:02:00.068Z,13.77
2022-12-23T06:04:29.572Z,14.52
2022-12-23T06:06:57.578Z,10.32
2022-12-23T06:09:25.404Z,10.60
2022-12-23T06:11:53.756Z,15.40
2022-12-23T06:14:28.314Z,17.30
2022-12-23T06:16:57.341Z,12.90
2022-12-23T06:19:26.019Z,15.90
2022-12-23T06:21:55.279Z,14.40
2022-12-23T06:24:23.816Z,18.55
2022-12-23T06:26:56.852Z,16.08
2022-12-23T06:29:25.673Z,14.43
2022-12-23T06:31:53.658Z,14.35
2022-12-23T06:34:21.616Z,15.95
2022-12-23T06:36:49.754Z,16.65
2022-12-23T06:39:19.225Z,15.52
2022-12-23T06:41:47.365Z,13.23
2022-12-23T06:44:15.573Z,16.20
2022-12-23T06:46:43.401Z,13.98
2022-12-23T06:49:13.780Z,15.77
2022-12-23T06:51:42.503Z,12.07
2022-12-23T06:54:12.006Z,14.05
2022-12-23T06:56:41.639Z,23.30
2022-12-23T06:59:10.295Z,21.58
2022-12-23T07:01:38.673Z,20.23
2022-12-23T07:04:06.651Z,26.05
2022-12-23T07:06:35.074Z,27.52
2022-12-23T07:09:02.893Z,25.23
2022-12-23T07:11:30.925Z,23.73
2022-12-23T07:14:02.713Z,23.75
2022-12-23T07:16:30.758Z,30.10
2022-12-23T07:18:58.634Z,19.77
2022-12-23T07:21:29.811Z,14.60
2022-12-23T07:23:58.088Z,24.92
2022-12-23T07:26:25.984Z,13.95
2022-12-23T07:28:54.361Z,16.15
2022-12-23T07:31:23.937Z,19.60
2022-12-23T07:33:51.931Z,26.98
2022-12-23T07:36:20.670Z,16.30
2022-12-23T07:38:50.615Z,12.18
2022-12-23T07:41:18.776Z,18.90
2022-12-23T07:43:47.422Z,12.27
2022-12-23T07:46:15.325Z,12.98
2022-12-23T07:48:44.978Z,12.75
2022-12-23T07:51:13.245Z,15.27
2022-12-23T07:53:41.277Z,14.10
2022-12-23T07:56:09.588Z,19.20
2022-12-23T07:58:38.136Z,12.73
2022-12-23T08:01:08.913Z,17.23
2022-12-23T08:03:38.056Z,18.02
2022-12-23T08:06:12.457Z,19.20
2022-12-23T08:08:43.873Z,17.52
2022-12-23T08:11:13.929Z,17.90
2022-12-23T08:13:43.472Z,18.38
2022-12-23T08:16:13.177Z,27.10
2022-12-23T08:18:43.351Z,29.17
2022-12-23T08:21:15.540Z,21.00
2022-12-23T08:23:44.081Z,26.58
2022-12-23T08:26:13.699Z,37.53
2022-12-23T08:28:43.853Z,31.38
2022-12-23T08:31:14.473Z,28.80
2022-12-23T08:33:44.822Z,27.20
2022-12-23T08:36:22.511Z,27.50
2022-12-23T08:38:54.462Z,31.75
2022-12-23T08:41:24.316Z,32.78
2022-12-23T08:43:52.712Z,40.67
2022-12-23T08:46:21.260Z,32.40
2022-12-23T08:48:51.564Z,30.02
2022-12-23T08:51:25.122Z,28.65
2022-12-23T08:54:00.178Z,28.75
2022-12-23T08:56:31.373Z,29.85
2022-12-23T08:58:59.646Z,31.27
2022-12-23T09:01:31.799Z,29.40
2022-12-23T09:04:02.628Z,30.23
2022-12-23T09:06:35.163Z,26.95
2022-12-23T09:09:03.158Z,35.67
2022-12-23T09:11:31.506Z,25.13
2022-12-23T09:14:01.715Z,33.15
2022-12-23T09:16:30.731Z,24.23
2022-12-23T09:18:59.867Z,24.20
2022-12-23T09:21:28.915Z,25.50
2022-12-23T09:23:58.352Z,27.13
2022-12-23T09:26:28.477Z,21.20
2022-12-23T09:28:57.522Z,23.48
2022-12-23T09:31:30.830Z,18.38
2022-12-23T09:34:02.796Z,14.88
2022-12-23T09:36:30.957Z,13.20
2022-12-23T09:39:00.620Z,14.45
2022-12-23T09:41:42.970Z,10.65
2022-12-23T09:44:25.307Z,14.80
2022-12-23T09:46:57.927Z,12.68
2022-12-23T09:49:25.838Z,15.32
2022-12-23T09:52:01.624Z,11.75
2022-12-23T09:54:36.382Z,19.17
2022-12-23T09:57:13.133Z,13.90
2022-12-23T09:59:59.626Z,11.02
2022-12-23T10:02:40.232Z,11.45
2022-12-23T10:05:20.828Z,25.42
2022-12-23T10:07:51.861Z,10.73
2022-12-23T10:10:30.277Z,11.88
2022-12-23T10:13:01.004Z,13.68
2022-12-23T10:15:33.915Z,20.95
2022-12-23T10:18:07.056Z,10.57
2022-12-23T10:20:42.951Z,13.15
2022-12-23T10:23:19.242Z,12.88
2022-12-23T10:25:52.944Z,19.35
2022-12-23T10:28:21.489Z,12.00
2022-12-23T10:33:56.952Z,12.25
2022-12-23T10:36:30.568Z,13.65
2022-12-23T10:39:05.795Z,9.85
2022-12-23T10:41:43.335Z,8.85
2022-12-23T10:44:54.374Z,12.88
2022-12-23T10:47:32.354Z,11.23
2022-12-23T10:50:09.774Z,12.35
2022-12-23T10:52:42.109Z,11.85
2022-12-23T10:55:22.026Z,16.38
2022-12-23T10:57:53.220Z,8.93
2022-12-23T11:00:24.368Z,16.00
2022-12-23T11:03:07.923Z,17.23
2022-12-23T11:05:37.252Z,28.33
2022-12-23T11:08:05.705Z,12.95
2022-12-23T11:10:34.702Z,21.00
2022-12-23T11:13:04.492Z,16.23
2022-12-23T11:15:34.784Z,31.60
2022-12-23T11:18:06.016Z,13.88
2022-12-23T11:20:35.168Z,13.77
2022-12-23T11:23:05.115Z,28.02
2022-12-23T11:25:36.348Z,34.92
2022-12-23T11:28:09.480Z,17.05
2022-12-23T11:30:55.197Z,25.65
2022-12-23T11:33:27.564Z,31.90
2022-12-23T11:36:04.451Z,38.75
2022-12-23T11:38:33.107Z,31.08
2022-12-23T11:41:01.231Z,29.30
2022-12-23T11:43:32.359Z,19.48
2022-12-23T11:46:26.423Z,18.70
2022-12-23T11:49:06.916Z,30.23
2022-12-23T11:51:35.455Z,40.85
2022-12-23T11:54:03.809Z,35.80
2022-12-23T11:56:38.064Z,40.78
2022-12-23T11:59:10.071Z,23.42
2022-12-23T12:01:39.466Z,33.90
2022-12-23T12:04:10.385Z,38.75
2022-12-23T12:06:48.401Z,37.67
2022-12-23T12:09:23.785Z,23.33
2022-12-23T12:11:55.837Z,27.05
2022-12-23T12:14:33.006Z,39.90
2022-12-23T12:17:07.584Z,29.75
2022-12-23T12:19:41.814Z,46.38
2022-12-23T12:22:17.289Z,41.00
2022-12-23T12:24:51.874Z,26.67
2022-12-23T12:27:24.539Z,27.33
2022-12-23T12:30:06.080Z,22.85
2022-12-23T12:32:47.339Z,26.77
2022-12-23T12:35:19.503Z,32.70
2022-12-23T12:37:53.316Z,25.15
2022-12-23T12:40:32.054Z,23.42
2022-12-23T12:43:07.145Z,19.92
2022-12-23T12:45:45.493Z,13.55
2022-12-23T12:48:31.708Z,14.45
2022-12-23T12:51:05.713Z,12.68
2022-12-23T12:53:35.046Z,9.30
2022-12-23T12:56:11.912Z,12.85
2022-12-23T12:58:42.014Z,10.00
2022-12-23T13:01:28.804Z,12.70
2022-12-23T13:04:30.428Z,13.98
2022-12-23T13:07:09.889Z,11.25
2022-12-23T13:09:51.054Z,10.55
2022-12-23T13:12:27.456Z,14.10
2022-12-23T13:15:04.447Z,9.05
2022-12-23T13:17:45.519Z,9.10
2022-12-23T13:20:25.429Z,6.35
2022-12-23T13:23:15.143Z,20.48
2022-12-23T13:25:56.921Z,17.83
2022-12-23T13:28:35.402Z,20.75
2022-12-23T13:31:13.014Z,18.50
2022-12-23T13:33:55.909Z,21.02
2022-12-23T13:36:38.145Z,29.98
2022-12-23T13:39:20.623Z,24.33
2022-12-23T13:41:53.605Z,20.80
2022-12-23T13:44:22.603Z,30.10
2022-12-23T13:47:06.409Z,25.50
2022-12-23T13:49:55.207Z,22.45
2022-12-23T13:52:34.156Z,19.50
2022-12-23T13:55:17.064Z,19.80
2022-12-23T13:57:53.492Z,21.60
2022-12-23T14:00:28.632Z,19.83
2022-12-23T14:03:18.262Z,18.55
2022-12-23T14:05:50.586Z,25.20
2022-12-23T14:08:36.753Z,17.90
2022-12-23T14:11:18.246Z,12.18
2022-12-23T14:14:00.455Z,11.48
2022-12-23T14:16:52.007Z,12.35
2022-12-23T14:19:43.987Z,12.07
2022-12-23T14:22:41.606Z,10.77
2022-12-23T14:25:41.871Z,13.70
2022-12-23T14:28:21.457Z,11.07
2022-12-23T14:30:49.855Z,8.68
2022-12-23T14:33:25.494Z,14.48
2022-12-23T14:35:58.581Z,31.58
2022-12-23T14:38:31.655Z,17.38
2022-12-23T14:41:18.070Z,18.80
2022-12-23T14:43:57.511Z,18.73
2022-12-23T14:46:59.857Z,18.00
2022-12-23T14:49:49.125Z,19.42
2022-12-23T14:52:49.614Z,12.75
2022-12-23T14:55:49.927Z,11.32
2022-12-23T14:58:40.560Z,7.82
2022-12-23T15:01:13.791Z,16.95
2022-12-23T15:03:46.235Z,15.70
2022-12-23T15:06:20.337Z,22.27
2022-12-23T15:08:52.159Z,17.88
2022-12-23T15:11:28.240Z,17.52
2022-12-23T15:14:00.525Z,15.00
2022-12-23T15:16:35.098Z,14.80
2022-12-23T15:19:13.892Z,18.00
2022-12-23T15:21:43.185Z,14.35
2022-12-23T15:24:17.833Z,19.50
2022-12-23T15:27:09.768Z,15.38
2022-12-23T15:29:44.377Z,15.48
2022-12-23T15:32:12.912Z,10.75
2022-12-23T15:34:42.162Z,19.35
2022-12-23T15:37:12.730Z,7.15
2022-12-23T15:39:43.804Z,11.43
2022-12-23T15:42:25.584Z,11.38
2022-12-23T15:44:55.535Z,21.45
2022-12-23T15:47:30.749Z,31.80
2022-12-23T15:49:59.919Z,23.45
2022-12-23T15:52:30.013Z,23.02
2022-12-23T15:55:04.248Z,25.48
2022-12-23T15:57:32.638Z,22.90
2022-12-23T16:00:02.085Z,27.23
2022-12-23T16:05:30.732Z,22.30
2022-12-23T16:08:13.610Z,18.70
2022-12-23T16:10:42.730Z,26.63
2022-12-23T16:13:46.761Z,27.33
2022-12-23T16:16:34.890Z,30.92
2022-12-23T16:19:03.189Z,26.58
2022-12-23T16:21:34.434Z,29.42
2022-12-23T16:24:06.633Z,36.00
2022-12-23T16:26:41.504Z,31.55
2022-12-23T16:29:11.910Z,30.48
2022-12-23T16:31:51.120Z,30.30
2022-12-23T16:34:23.114Z,27.75
2022-12-23T16:36:51.219Z,26.20
2022-12-23T16:39:22.829Z,29.50
2022-12-23T16:41:52.231Z,29.40
2022-12-23T16:44:20.754Z,34.05
2022-12-23T16:46:52.104Z,14.00
2022-12-23T16:49:26.733Z,14.50
2022-12-23T16:51:59.310Z,26.80
2022-12-23T16:54:27.946Z,17.67
2022-12-23T16:56:55.871Z,20.58
2022-12-23T16:59:26.141Z,29.30
2022-12-23T17:02:02.910Z,18.42
2022-12-23T17:04:31.652Z,15.32
2022-12-23T17:07:00.152Z,15.27
2022-12-23T17:09:28.187Z,15.10
2022-12-23T17:11:56.422Z,19.02
2022-12-23T17:14:26.829Z,21.20
2022-12-23T17:16:56.229Z,16.13
2022-12-23T17:19:28.858Z,14.68
2022-12-23T17:22:02.468Z,13.88
2022-12-23T17:24:31.256Z,18.58
2022-12-23T17:26:59.555Z,18.33
2022-12-23T17:29:28.418Z,17.80
2022-12-23T17:31:58.219Z,11.35
2022-12-23T17:34:26.191Z,33.75
2022-12-23T17:36:54.811Z,35.15
2022-12-23T17:39:26.736Z,24.90
2022-12-23T17:41:55.241Z,29.98
2022-12-23T17:44:23.559Z,28.13
2022-12-23T17:46:51.871Z,31.30
2022-12-23T17:49:24.149Z,40.40
2022-12-23T17:51:53.300Z,27.42
2022-12-23T17:54:25.027Z,30.17
2022-12-23T17:56:53.773Z,36.80
2022-12-23T17:59:23.133Z,30.13
2022-12-23T18:01:52.857Z,26.10
2022-12-23T18:04:22.574Z,30.02
2022-12-23T18:06:50.730Z,26.23
2022-12-23T18:09:21.977Z,28.80
2022-12-23T18:11:50.125Z,24.98
2022-12-23T18:14:22.621Z,31.33
2022-12-23T18:16:50.838Z,31.38
2022-12-23T18:19:20.773Z,15.98
2022-12-23T18:21:51.243Z,16.73
2022-12-23T18:24:19.525Z,16.13
2022-12-23T18:26:47.831Z,17.77
2022-12-23T18:29:16.873Z,23.25
2022-12-23T18:31:52.134Z,18.85
2022-12-23T18:34:22.166Z,19.50
2022-12-23T18:36:53.935Z,19.58
2022-12-23T18:39:22.616Z,24.10
2022-12-23T18:41:50.819Z,24.35
2022-12-23T18:44:21.181Z,20.05
2022-12-23T18:46:50.664Z,25.27
2022-12-23T18:49:18.760Z,18.40
2022-12-23T18:51:47.107Z,22.52
2022-12-23T18:54:19.783Z,15.30
2022-12-23T18:56:49.377Z,22.17
2022-12-23T18:59:24.308Z,17.60
2022-12-23T19:01:57.975Z,18.38
2022-12-23T19:04:26.566Z,24.88
2022-12-23T19:06:56.168Z,19.00
2022-12-23T19:09:26.609Z,19.73
2022-12-23T19:11:54.976Z,20.67
2022-12-23T19:14:25.254Z,24.17
2022-12-23T19:16:53.950Z,24.65
2022-12-23T19:19:23.171Z,16.88
2022-12-23T19:21:53.478Z,17.55
2022-12-23T19:24:21.400Z,23.33
2022-12-23T19:26:50.766Z,22.30
2022-12-23T19:29:19.179Z,20.27
2022-12-23T19:31:48.574Z,12.60
2022-12-23T19:34:16.812Z,13.32
2022-12-23T19:36:45.476Z,12.32
2022-12-23T19:39:17.276Z,13.25
2022-12-23T19:41:45.980Z,17.92
2022-12-23T19:44:15.401Z,13.30
2022-12-23T19:46:43.840Z,16.63
2022-12-23T19:49:17.742Z,13.68
2022-12-23T19:51:48.830Z,14.05
2022-12-23T19:54:16.829Z,17.27
2022-12-23T19:56:45.121Z,15.00
2022-12-23T19:59:13.864Z,12.60
2022-12-23T20:01:43.643Z,10.60
2022-12-23T20:04:12.620Z,12.20
2022-12-23T20:06:42.860Z,10.75
2022-12-23T20:09:13.057Z,12.55
2022-12-23T20:11:43.829Z,17.65
2022-12-23T20:14:13.165Z,11.13
2022-12-23T20:16:41.924Z,12.15
2022-12-23T20:19:12.114Z,11.98
2022-12-23T20:21:40.124Z,13.02
2022-12-23T20:24:08.914Z,10.40
2022-12-23T20:26:37.587Z,14.68
2022-12-23T20:29:06.613Z,15.13
2022-12-23T20:31:38.017Z,15.25
2022-12-23T20:34:07.372Z,15.73
2022-12-23T20:36:38.318Z,12.52
2022-12-23T20:39:07.297Z,14.45
2022-12-23T20:41:35.607Z,15.50
2022-12-23T20:46:52.037Z,12.07
2022-12-23T20:49:20.366Z,18.98
2022-12-23T20:51:49.811Z,12.35
2022-12-23T20:54:17.795Z,8.43
2022-12-23T20:56:46.302Z,11.65
2022-12-23T20:59:14.380Z,9.52
2022-12-23T21:01:43.184Z,9.65
2022-12-23T21:04:13.257Z,8.40
2022-12-23T21:06:41.698Z,9.77
2022-12-23T21:09:13.610Z,13.23
2022-12-23T21:11:43.887Z,9.98
2022-12-23T21:14:12.430Z,14.43
2022-12-23T21:16:44.504Z,17.13
2022-12-23T21:19:16.801Z,10.35
2022-12-23T21:21:45.867Z,15.90
2022-12-23T21:24:15.678Z,20.15
2022-12-23T21:26:43.892Z,14.27
2022-12-23T21:29:12.242Z,14.00
2022-12-23T21:31:42.535Z,19.95
2022-12-23T21:34:14.482Z,18.02
2022-12-23T21:36:43.822Z,19.08
2022-12-23T21:39:17.264Z,20.27
2022-12-23T21:41:46.024Z,12.00
2022-12-23T21:44:15.103Z,23.48
2022-12-23T21:46:43.665Z,26.73
2022-12-23T21:49:12.647Z,18.60
2022-12-23T21:51:41.682Z,20.25
2022-12-23T21:54:12.409Z,18.30
2022-12-23T21:56:42.451Z,18.65
2022-12-23T21:59:15.135Z,21.00
2022-12-23T22:01:44.157Z,18.08
2022-12-23T22:04:13.240Z,14.82
2022-12-23T22:06:45.260Z,23.88
2022-12-23T22:09:16.200Z,29.20
2022-12-23T22:11:48.001Z,31.42
2022-12-23T22:14:18.463Z,24.58
2022-12-23T22:16:47.253Z,24.23
2022-12-23T22:19:15.628Z,20.30
2022-12-23T22:21:43.699Z,24.10
2022-12-23T22:24:12.786Z,21.35
2022-12-23T22:26:41.029Z,23.65
2022-12-23T22:29:12.370Z,23.52
2022-12-23T22:31:43.208Z,15.60
2022-12-23T22:34:15.295Z,8.77
2022-12-23T22:36:43.878Z,16.77
2022-12-23T22:39:19.962Z,16.08
2022-12-23T22:41:49.254Z,19.63
2022-12-23T22:44:19.160Z,18.77
2022-12-23T22:46:47.656Z,17.30
2022-12-23T22:49:17.009Z,15.90
2022-12-23T22:51:45.837Z,15.45
2022-12-23T22:54:14.221Z,15.50
2022-12-23T22:56:42.581Z,18.83
2022-12-23T22:59:23.183Z,11.15
2022-12-23T23:01:52.750Z,19.33
2022-12-23T23:04:21.039Z,18.25
2022-12-23T23:06:49.219Z,17.13
2022-12-23T23:09:20.686Z,20.30
2022-12-23T23:11:48.596Z,23.38
2022-12-23T23:14:17.252Z,23.80
2022-12-23T23:16:48.021Z,15.68
2022-12-23T23:19:16.573Z,20.98
2022-12-23T23:21:45.131Z,13.60
2022-12-23T23:24:13.861Z,12.88
2022-12-23T23:26:43.571Z,21.38
2022-12-23T23:29:12.444Z,15.70
2022-12-23T23:31:42.916Z,22.27
2022-12-23T23:34:13.804Z,15.93
2022-12-23T23:36:42.726Z,14.63
2022-12-23T23:39:13.444Z,11.57
2022-12-23T23:41:42.348Z,19.00
2022-12-23T23:44:11.357Z,15.75
2022-12-23T23:46:39.577Z,19.90
2022-12-23T23:49:08.544Z,26.25
2022-12-23T23:51:38.617Z,18.75
2022-12-23T23:54:07.323Z,18.52
2022-12-23T23:56:39.193Z,18.85
2022-12-23T23:59:09.081Z,20.08
